createdAt,value
2019-04-04T00:00:45.163Z,1.40
2019-04-04T00:03:16.086Z,2.00
2019-04-04T00:05:46.190Z,1.60
2019-04-04T00:08:16.483Z,2.20
2019-04-04T00:10:46.928Z,1.00
2019-04-04T00:13:17.544Z,1.40
2019-04-04T00:15:47.760Z,0.00
2019-04-04T00:18:18.508Z,1.00
2019-04-04T00:20:49.147Z,1.00
2019-04-04T00:23:19.352Z,1.00
2019-04-04T00:25:49.904Z,0.00
2019-04-04T00:28:20.020Z,1.00
2019-04-04T00:30:50.255Z,0.20
2019-04-04T00:33:21.068Z,0.80
2019-04-04T00:35:51.284Z,1.00
2019-04-04T00:38:21.524Z,0.00
2019-04-04T00:40:51.846Z,0.00
2019-04-04T00:43:22.056Z,0.40
2019-04-04T00:45:52.973Z,0.00
2019-04-04T00:48:23.432Z,1.40
2019-04-04T00:50:53.660Z,0.00
2019-04-04T00:53:23.760Z,0.80
2019-04-04T00:55:54.338Z,1.00
2019-04-04T00:58:24.536Z,0.00
2019-04-04T01:00:55.429Z,0.40
2019-04-04T01:03:25.893Z,0.80
2019-04-04T01:05:56.200Z,1.80
2019-04-04T01:08:26.318Z,1.00
2019-04-04T01:10:56.683Z,1.00
2019-04-04T01:13:27.732Z,0.00
2019-04-04T01:15:58.240Z,1.00
2019-04-04T01:18:29.055Z,0.00
2019-04-04T01:20:59.269Z,1.00
2019-04-04T01:23:29.488Z,0.20
2019-04-04T01:26:01.339Z,0.00
2019-04-04T01:28:31.863Z,0.20
2019-04-04T01:31:02.017Z,0.20
2019-04-04T01:33:32.309Z,1.00
2019-04-04T01:36:02.883Z,0.00
2019-04-04T01:38:33.004Z,0.00
2019-04-04T01:41:04.408Z,1.00
2019-04-04T01:43:38.064Z,1.00
2019-04-04T01:46:08.049Z,1.00
2019-04-04T01:48:38.178Z,0.20
2019-04-04T01:51:08.514Z,0.60
2019-04-04T01:53:39.224Z,0.00
2019-04-04T01:56:09.861Z,1.00
2019-04-04T01:58:41.759Z,0.00
2019-04-04T02:01:12.377Z,1.00
2019-04-04T02:03:42.964Z,0.00
2019-04-04T02:06:13.124Z,0.00
2019-04-04T02:08:43.939Z,0.20
2019-04-04T02:11:14.149Z,0.20
2019-04-04T02:13:44.440Z,0.60
2019-04-04T02:16:14.955Z,0.60
2019-04-04T02:18:46.965Z,0.00
2019-04-04T02:21:17.211Z,0.00
2019-04-04T02:23:47.824Z,0.00
2019-04-04T02:26:18.143Z,0.00
2019-04-04T02:28:48.281Z,1.00
2019-04-04T02:31:21.082Z,0.40
2019-04-04T02:33:50.437Z,0.00
2019-04-04T02:36:20.957Z,0.00
2019-04-04T02:39:08.414Z,0.00
2019-04-04T02:41:38.632Z,0.40
2019-04-04T02:44:09.261Z,0.00
2019-04-04T02:46:44.509Z,0.00
2019-04-04T02:49:12.062Z,0.20
2019-04-04T02:51:42.584Z,1.00
2019-04-04T02:54:12.832Z,1.00
2019-04-04T02:56:43.812Z,1.00
2019-04-04T02:59:20.218Z,0.00
2019-04-04T03:01:46.548Z,0.00
2019-04-04T03:04:16.849Z,0.00
2019-04-04T03:06:46.777Z,0.60
2019-04-04T03:09:16.905Z,0.00
2019-04-04T03:11:47.826Z,0.80
2019-04-04T03:14:18.854Z,1.00
2019-04-04T03:16:49.126Z,0.80
2019-04-04T03:19:19.421Z,0.60
2019-04-04T03:21:49.553Z,1.00
2019-04-04T03:24:19.773Z,0.60
2019-04-04T03:26:52.140Z,1.00
2019-04-04T03:29:21.932Z,1.00
2019-04-04T03:31:52.418Z,0.20
2019-04-04T03:34:23.201Z,1.00
2019-04-04T03:36:53.327Z,0.80
2019-04-04T03:39:23.577Z,0.00
2019-04-04T03:41:53.799Z,1.00
2019-04-04T03:44:23.988Z,0.00
2019-04-04T03:46:54.325Z,0.00
2019-04-04T03:49:24.814Z,0.00
2019-04-04T03:51:55.093Z,0.00
2019-04-04T03:54:26.999Z,1.00
2019-04-04T03:56:57.270Z,0.80
2019-04-04T03:59:31.903Z,0.60
2019-04-04T04:01:59.882Z,1.00
2019-04-04T04:04:30.373Z,0.00
2019-04-04T04:07:00.599Z,0.00
2019-04-04T04:09:30.949Z,0.80
2019-04-04T04:12:01.078Z,0.00
2019-04-04T04:14:31.978Z,0.80
2019-04-04T04:17:02.226Z,0.20
2019-04-04T04:19:32.733Z,1.00
2019-04-04T04:22:02.958Z,0.00
2019-04-04T04:24:33.322Z,1.00
2019-04-04T04:27:03.692Z,0.00
2019-04-04T04:29:33.849Z,0.00
2019-04-04T04:32:04.077Z,0.00
2019-04-04T04:34:34.877Z,0.00
2019-04-04T04:37:05.121Z,0.20
2019-04-04T04:39:40.767Z,0.40
2019-04-04T04:42:07.396Z,0.00
2019-04-04T04:44:38.713Z,0.00
2019-04-04T04:47:09.095Z,0.00
2019-04-04T04:49:39.293Z,0.00
2019-04-04T04:52:09.815Z,0.00
2019-04-04T04:54:40.823Z,0.00
2019-04-04T04:57:17.734Z,0.00
2019-04-04T04:59:44.376Z,0.00
2019-04-04T05:02:14.709Z,0.00
2019-04-04T05:04:46.013Z,-0.20
2019-04-04T05:07:17.071Z,0.00
2019-04-04T05:09:47.510Z,0.00
2019-04-04T05:12:17.732Z,0.00
2019-04-04T05:14:47.966Z,0.00
2019-04-04T05:17:18.209Z,0.00
2019-04-04T05:19:50.124Z,0.00
2019-04-04T05:22:20.179Z,0.20
2019-04-04T05:25:07.015Z,0.00
2019-04-04T05:27:22.155Z,0.00
2019-04-04T05:29:52.335Z,0.00
2019-04-04T05:32:22.999Z,0.20
2019-04-04T05:34:53.718Z,0.00
2019-04-04T05:37:27.225Z,0.80
2019-04-04T05:39:56.235Z,1.00
2019-04-04T05:42:26.938Z,0.40
2019-04-04T05:44:57.676Z,0.00
2019-04-04T05:47:27.905Z,0.00
2019-04-04T05:49:58.523Z,0.20
2019-04-04T05:52:30.499Z,2.20
2019-04-04T05:55:01.039Z,0.00
2019-04-04T05:57:31.179Z,0.00
2019-04-04T06:00:01.633Z,0.00
2019-04-04T06:02:32.353Z,1.00
2019-04-04T06:05:02.507Z,1.00
2019-04-04T06:07:34.191Z,0.40
2019-04-04T06:10:06.716Z,2.60
2019-04-04T06:12:37.648Z,0.80
2019-04-04T06:15:09.029Z,1.00
2019-04-04T06:17:39.830Z,0.00
2019-04-04T06:20:10.701Z,0.20
2019-04-04T06:22:41.329Z,1.80
2019-04-04T06:25:11.771Z,1.00
2019-04-04T06:27:41.972Z,1.40
2019-04-04T06:30:12.501Z,0.40
2019-04-04T06:32:42.806Z,0.80
2019-04-04T06:35:15.571Z,1.00
2019-04-04T06:37:46.138Z,1.00
2019-04-04T06:40:16.783Z,0.40
2019-04-04T06:42:47.019Z,0.50
2019-04-04T06:45:17.120Z,0.80
2019-04-04T06:47:47.473Z,0.00
2019-04-04T06:50:17.642Z,0.00
2019-04-04T06:52:48.251Z,2.20
2019-04-04T06:55:19.548Z,0.00
2019-04-04T06:57:51.244Z,1.00
2019-04-04T07:00:21.517Z,0.80
2019-04-04T07:02:55.218Z,1.00
2019-04-04T07:05:23.500Z,0.25
2019-04-04T07:07:53.818Z,1.00
2019-04-04T07:10:24.364Z,0.00
2019-04-04T07:13:09.365Z,0.40
2019-04-04T07:15:26.643Z,1.00
2019-04-04T07:17:57.186Z,0.75
2019-04-04T07:20:28.556Z,0.00
2019-04-04T07:22:58.734Z,0.75
2019-04-04T07:25:28.992Z,0.00
2019-04-04T07:27:59.811Z,0.00
2019-04-04T07:30:30.036Z,0.50
2019-04-04T07:33:00.300Z,0.60
2019-04-04T07:35:30.456Z,1.40
2019-04-04T07:38:01.088Z,0.00
2019-04-04T07:40:31.231Z,0.00
2019-04-04T07:43:01.451Z,0.80
2019-04-04T07:45:31.648Z,0.75
2019-04-04T07:48:01.890Z,0.00
2019-04-04T07:50:32.220Z,0.00
2019-04-04T07:53:04.869Z,0.00
2019-04-04T07:55:34.699Z,0.00
2019-04-04T07:58:05.012Z,0.60
2019-04-04T08:00:35.537Z,0.80
2019-04-04T08:03:05.697Z,1.00
2019-04-04T08:05:35.881Z,0.80
2019-04-04T08:08:06.728Z,1.00
2019-04-04T08:10:37.047Z,0.60
2019-04-04T08:13:07.568Z,0.00
2019-04-04T08:15:38.102Z,1.00
2019-04-04T08:18:08.261Z,0.80
2019-04-04T08:20:38.855Z,0.00
2019-04-04T08:23:08.964Z,0.00
2019-04-04T08:25:39.207Z,1.00
2019-04-04T08:28:09.917Z,0.50
2019-04-04T08:30:41.566Z,0.00
2019-04-04T08:33:11.841Z,0.75
2019-04-04T08:35:42.859Z,0.25
2019-04-04T08:38:13.069Z,0.50
2019-04-04T08:40:46.236Z,1.00
2019-04-04T08:43:16.684Z,0.00
2019-04-04T08:45:46.808Z,0.80
2019-04-04T08:48:17.101Z,0.00
2019-04-04T08:50:47.380Z,1.00
2019-04-04T08:53:17.492Z,0.00
2019-04-04T08:55:47.825Z,0.40
2019-04-04T08:58:18.633Z,1.00
2019-04-04T09:00:48.917Z,1.00
2019-04-04T09:03:19.009Z,0.00
2019-04-04T09:05:49.213Z,1.00
2019-04-04T09:08:20.033Z,1.00
2019-04-04T09:10:50.290Z,0.40
2019-04-04T09:13:20.882Z,1.00
2019-04-04T09:15:51.020Z,1.50
2019-04-04T09:18:21.952Z,1.00
2019-04-04T09:20:52.077Z,1.00
2019-04-04T09:23:22.908Z,0.20
2019-04-04T09:26:05.066Z,1.00
2019-04-04T09:28:25.195Z,0.50
2019-04-04T09:30:56.426Z,1.00
2019-04-04T09:33:26.585Z,0.75
2019-04-04T09:35:57.705Z,2.50
2019-04-04T09:38:29.208Z,0.75
2019-04-04T09:40:59.801Z,1.00
2019-04-04T09:43:30.505Z,0.00
2019-04-04T09:46:01.147Z,1.00
2019-04-04T09:48:31.266Z,0.00
2019-04-04T09:51:01.480Z,1.00
2019-04-04T09:53:31.705Z,2.00
2019-04-04T09:56:02.344Z,1.00
2019-04-04T09:58:32.959Z,1.00
2019-04-04T10:01:06.381Z,0.00
2019-04-04T10:03:35.171Z,0.50
2019-04-04T10:06:05.888Z,1.00
2019-04-04T10:08:38.681Z,0.75
2019-04-04T10:11:08.198Z,2.50
2019-04-04T10:13:38.394Z,1.00
2019-04-04T10:16:09.026Z,1.00
2019-04-04T10:18:39.754Z,3.00
2019-04-04T10:21:12.120Z,3.25
2019-04-04T10:23:41.873Z,3.00
2019-04-04T10:26:12.084Z,1.00
2019-04-04T10:28:42.584Z,2.50
2019-04-04T10:31:13.116Z,1.25
2019-04-04T10:33:44.268Z,1.00
2019-04-04T10:36:14.997Z,1.50
2019-04-04T10:38:45.551Z,1.00
2019-04-04T10:41:15.881Z,2.00
2019-04-04T10:43:46.207Z,1.50
2019-04-04T10:46:17.112Z,1.00
2019-04-04T10:48:47.348Z,3.00
2019-04-04T10:51:17.665Z,0.00
2019-04-04T10:53:48.175Z,0.00
2019-04-04T10:56:18.312Z,1.00
2019-04-04T10:58:48.923Z,1.00
2019-04-04T11:01:19.464Z,1.00
2019-04-04T11:03:50.197Z,1.00
2019-04-04T11:06:20.437Z,0.25
2019-04-04T11:08:50.660Z,1.00
2019-04-04T11:11:21.285Z,1.00
2019-04-04T11:13:51.389Z,3.00
2019-04-04T11:16:29.901Z,3.00
2019-04-04T11:18:53.986Z,1.00
2019-04-04T11:21:25.441Z,1.00
2019-04-04T11:23:55.470Z,1.00
2019-04-04T11:26:25.995Z,1.00
2019-04-04T11:28:55.808Z,1.00
2019-04-04T11:31:26.031Z,0.25
2019-04-04T11:33:56.273Z,2.00
2019-04-04T11:36:26.863Z,1.00
2019-04-04T11:38:57.004Z,0.00
2019-04-04T11:41:27.340Z,1.00
2019-04-04T11:43:57.833Z,1.00
2019-04-04T11:46:27.976Z,0.00
2019-04-04T11:48:58.188Z,1.50
2019-04-04T11:51:28.121Z,1.00
2019-04-04T11:53:58.513Z,1.00
2019-04-04T11:56:28.548Z,0.00
2019-04-04T11:58:58.782Z,0.00
2019-04-04T12:01:30.740Z,0.50
2019-04-04T12:04:01.529Z,0.75
2019-04-04T12:06:31.601Z,1.50
2019-04-04T12:09:01.802Z,1.00
2019-04-04T12:11:32.362Z,1.00
2019-04-04T12:14:02.948Z,0.00
2019-04-04T12:16:33.077Z,0.00
2019-04-04T12:19:03.337Z,0.75
2019-04-04T12:21:33.652Z,1.00
2019-04-04T12:24:04.045Z,1.50
2019-04-04T12:26:34.893Z,0.25
2019-04-04T12:29:05.210Z,0.25
2019-04-04T12:31:35.478Z,1.00
2019-04-04T12:34:05.556Z,1.50
2019-04-04T12:36:35.803Z,1.00
2019-04-04T12:39:07.642Z,1.00
2019-04-04T12:41:37.561Z,0.75
2019-04-04T12:44:07.684Z,1.00
2019-04-04T12:46:38.604Z,1.00
2019-04-04T12:49:08.727Z,0.25
2019-04-04T12:51:39.146Z,0.00
2019-04-04T12:54:09.789Z,1.00
2019-04-04T12:56:40.306Z,0.75
2019-04-04T12:59:10.256Z,1.00
2019-04-04T13:01:40.786Z,0.00
2019-04-04T13:04:11.105Z,0.50
2019-04-04T13:06:41.496Z,1.00
2019-04-04T13:09:12.138Z,1.00
2019-04-04T13:11:42.905Z,1.00
2019-04-04T13:14:13.215Z,0.50
2019-04-04T13:16:44.124Z,3.00
2019-04-04T13:19:14.171Z,0.25
2019-04-04T13:21:44.478Z,1.00
2019-04-04T13:24:14.988Z,0.25
2019-04-04T13:26:45.374Z,1.00
2019-04-04T13:29:15.464Z,0.75
2019-04-04T13:31:45.966Z,1.00
2019-04-04T13:34:16.104Z,0.00
2019-04-04T13:36:46.320Z,1.00
2019-04-04T13:39:16.537Z,0.00
2019-04-04T13:41:46.788Z,0.50
2019-04-04T13:44:17.396Z,1.00
2019-04-04T13:46:48.123Z,1.00
2019-04-04T13:49:18.355Z,0.50
2019-04-04T13:51:48.589Z,0.75
2019-04-04T13:54:19.096Z,0.25
2019-04-04T13:56:49.350Z,0.50
2019-04-04T13:59:19.568Z,2.00
2019-04-04T14:01:50.262Z,1.00
2019-04-04T14:04:20.675Z,1.00
2019-04-04T14:06:52.755Z,0.75
2019-04-04T14:09:22.901Z,1.00
2019-04-04T14:11:53.146Z,0.50
2019-04-04T14:14:23.437Z,0.25
2019-04-04T14:16:53.745Z,0.00
2019-04-04T14:19:24.193Z,1.00
2019-04-04T14:21:54.302Z,0.25
2019-04-04T14:24:24.554Z,0.00
2019-04-04T14:26:54.758Z,1.00
2019-04-04T14:29:27.692Z,1.00
2019-04-04T14:31:57.354Z,0.75
2019-04-04T14:34:27.563Z,1.00
2019-04-04T14:36:57.773Z,1.00
2019-04-04T14:39:28.100Z,1.00
2019-04-04T14:41:58.052Z,1.00
2019-04-04T14:44:30.130Z,0.00
2019-04-04T14:46:59.888Z,1.50
2019-04-04T14:49:30.124Z,1.00
2019-04-04T14:52:00.468Z,0.00
2019-04-04T14:54:31.180Z,0.00
2019-04-04T14:57:01.813Z,1.00
2019-04-04T14:59:31.952Z,1.00
2019-04-04T15:02:02.164Z,0.25
2019-04-04T15:04:32.403Z,0.00
2019-04-04T15:07:02.390Z,1.00
2019-04-04T15:09:32.697Z,0.25
2019-04-04T15:12:03.047Z,0.60
2019-04-04T15:14:33.265Z,0.80
2019-04-04T15:17:03.471Z,1.00
2019-04-04T15:19:34.116Z,1.00
2019-04-04T15:22:04.565Z,1.50
2019-04-04T15:24:35.262Z,1.00
2019-04-04T15:27:05.401Z,0.50
2019-04-04T15:29:35.527Z,1.00
2019-04-04T15:32:06.129Z,0.00
2019-04-04T15:34:36.263Z,1.00
2019-04-04T15:37:06.740Z,-0.20
2019-04-04T15:39:37.005Z,0.20
2019-04-04T15:42:07.360Z,1.00
2019-04-04T15:44:37.849Z,0.20
2019-04-04T15:47:07.997Z,0.80
2019-04-04T15:49:38.414Z,1.00
2019-04-04T15:52:08.749Z,0.00
2019-04-04T15:54:39.643Z,1.00
2019-04-04T15:57:10.404Z,2.60
2019-04-04T15:59:40.785Z,1.00
2019-04-04T16:02:12.194Z,1.00
2019-04-04T16:04:42.649Z,0.60
2019-04-04T16:07:14.237Z,1.00
2019-04-04T16:09:44.609Z,1.00
2019-04-04T16:12:15.225Z,0.60
2019-04-04T16:14:45.732Z,1.00
2019-04-04T16:17:15.858Z,0.00
2019-04-04T16:19:46.092Z,1.00
2019-04-04T16:22:16.323Z,0.60
2019-04-04T16:24:46.626Z,0.60
2019-04-04T16:27:16.862Z,0.20
2019-04-04T16:29:47.109Z,1.80
2019-04-04T16:32:17.812Z,1.00
2019-04-04T16:34:49.143Z,0.00
2019-04-04T16:37:19.882Z,2.60
2019-04-04T16:39:50.028Z,1.00
2019-04-04T16:42:20.344Z,2.60
2019-04-04T16:44:50.479Z,1.00
2019-04-04T16:47:21.000Z,1.00
2019-04-04T16:49:51.616Z,1.00
2019-04-04T16:52:21.861Z,1.00
2019-04-04T16:54:53.693Z,1.00
2019-04-04T16:57:23.842Z,1.00
2019-04-04T16:59:53.928Z,2.60
2019-04-04T17:02:24.152Z,1.80
2019-04-04T17:04:54.812Z,1.00
2019-04-04T17:07:24.924Z,1.00
2019-04-04T17:09:55.129Z,1.00
2019-04-04T17:12:25.487Z,0.80
2019-04-04T17:14:55.588Z,1.00
2019-04-04T17:17:25.794Z,3.60
2019-04-04T17:19:56.229Z,1.00
2019-04-04T17:22:29.081Z,1.00
2019-04-04T17:24:58.610Z,0.00
2019-04-04T17:27:29.448Z,1.80
2019-04-04T17:30:00.362Z,1.00
2019-04-04T17:32:30.816Z,1.00
2019-04-04T17:35:01.486Z,0.80
2019-04-04T17:37:33.142Z,0.60
2019-04-04T17:40:03.352Z,1.00
2019-04-04T17:42:33.726Z,3.00
2019-04-04T17:45:05.098Z,2.00
2019-04-04T17:47:35.995Z,0.80
2019-04-04T17:50:11.269Z,2.80
2019-04-04T17:52:43.583Z,2.60
2019-04-04T17:55:15.506Z,1.80
2019-04-04T17:57:45.661Z,2.00
2019-04-04T18:00:17.080Z,1.00
2019-04-04T18:02:48.315Z,1.00
2019-04-04T18:05:18.772Z,1.00
2019-04-04T18:07:49.369Z,1.60
2019-04-04T18:10:19.590Z,1.00
2019-04-04T18:12:50.127Z,0.80
2019-04-04T18:15:20.648Z,3.20
2019-04-04T18:17:51.173Z,3.00
2019-04-04T18:20:21.724Z,1.80
2019-04-04T18:22:52.240Z,1.00
2019-04-04T18:25:22.770Z,0.20
2019-04-04T18:27:52.900Z,3.00
2019-04-04T18:30:23.517Z,0.20
2019-04-04T18:32:53.688Z,1.00
2019-04-04T18:35:24.390Z,2.20
2019-04-04T18:37:55.513Z,2.20
2019-04-04T18:40:26.552Z,2.20
2019-04-04T18:42:57.221Z,2.40
2019-04-04T18:45:27.548Z,2.20
2019-04-04T18:47:57.736Z,2.40
2019-04-04T18:50:27.997Z,2.80
2019-04-04T18:52:58.160Z,5.00
2019-04-04T18:55:28.810Z,2.40
2019-04-04T18:57:59.040Z,2.20
2019-04-04T19:00:29.557Z,1.80
2019-04-04T19:02:59.704Z,2.20
2019-04-04T19:05:30.017Z,2.20
2019-04-04T19:08:00.134Z,1.80
2019-04-04T19:10:30.364Z,1.20
2019-04-04T19:13:05.437Z,2.00
2019-04-04T19:15:32.936Z,2.00
2019-04-04T19:18:03.879Z,2.40
2019-04-04T19:20:34.004Z,2.60
2019-04-04T19:23:04.833Z,1.00
2019-04-04T19:25:35.060Z,2.40
2019-04-04T19:28:05.696Z,1.60
2019-04-04T19:30:35.900Z,4.00
2019-04-04T19:33:06.430Z,2.00
2019-04-04T19:35:36.560Z,1.20
2019-04-04T19:38:06.784Z,2.00
2019-04-04T19:40:37.696Z,2.20
2019-04-04T19:43:17.872Z,2.00
2019-04-04T19:45:41.157Z,1.40
2019-04-04T19:48:11.226Z,4.40
2019-04-04T19:50:41.684Z,1.00
2019-04-04T19:53:11.788Z,4.40
2019-04-04T19:55:42.525Z,2.00
2019-04-04T19:58:13.268Z,2.00
2019-04-04T20:00:44.156Z,2.20
2019-04-04T20:03:14.628Z,2.00
2019-04-04T20:05:45.184Z,3.60
2019-04-04T20:08:15.685Z,2.00
2019-04-04T20:10:45.932Z,4.40
2019-04-04T20:13:16.044Z,4.00
2019-04-04T20:15:46.652Z,1.80
2019-04-04T20:18:17.021Z,2.20
2019-04-04T20:20:47.731Z,2.20
2019-04-04T20:23:17.833Z,4.00
2019-04-04T20:25:48.054Z,1.40
2019-04-04T20:28:18.296Z,1.00
2019-04-04T20:30:48.516Z,4.00
2019-04-04T20:33:18.716Z,3.60
2019-04-04T20:35:49.360Z,4.00
2019-04-04T20:38:19.605Z,1.40
2019-04-04T20:40:50.106Z,2.40
2019-04-04T20:43:20.437Z,2.60
2019-04-04T20:45:52.605Z,4.80
2019-04-04T20:48:22.896Z,2.20
2019-04-04T20:50:53.172Z,2.40
2019-04-04T20:53:23.399Z,2.20
2019-04-04T20:55:53.578Z,4.00
2019-04-04T20:58:23.807Z,1.00
2019-04-04T21:00:54.141Z,3.00
2019-04-04T21:03:24.185Z,4.00
2019-04-04T21:05:54.393Z,2.80
2019-04-04T21:08:24.593Z,3.00
2019-04-04T21:10:54.812Z,3.20
2019-04-04T21:13:25.059Z,3.60
2019-04-04T21:15:55.251Z,3.60
2019-04-04T21:18:25.492Z,3.40
2019-04-04T21:20:55.828Z,3.80
2019-04-04T21:23:26.536Z,4.00
2019-04-04T21:25:56.781Z,3.60
2019-04-04T21:28:27.093Z,4.00
2019-04-04T21:30:57.222Z,2.00
2019-04-04T21:33:27.448Z,5.00
2019-04-04T21:35:57.765Z,4.00
2019-04-04T21:38:27.959Z,5.80
2019-04-04T21:40:58.496Z,3.80
2019-04-04T21:43:28.849Z,3.80
2019-04-04T21:45:59.169Z,3.60
2019-04-04T21:48:29.764Z,3.00
2019-04-04T21:51:00.312Z,1.00
2019-04-04T21:53:30.469Z,5.60
2019-04-04T21:56:01.263Z,4.80
2019-04-04T21:58:31.493Z,2.60
2019-04-04T22:01:02.108Z,3.60
2019-04-04T22:03:32.641Z,2.20
2019-04-04T22:06:03.231Z,4.00
2019-04-04T22:08:33.624Z,2.60
2019-04-04T22:11:03.814Z,3.00
2019-04-04T22:13:34.655Z,5.20
2019-04-04T22:16:05.096Z,4.00
2019-04-04T22:18:35.401Z,3.60
2019-04-04T22:21:05.661Z,4.00
2019-04-04T22:23:36.268Z,3.80
2019-04-04T22:26:06.798Z,3.00
2019-04-04T22:28:36.936Z,1.00
2019-04-04T22:31:07.124Z,2.60
2019-04-04T22:33:37.350Z,3.00
2019-04-04T22:36:07.681Z,4.40
2019-04-04T22:38:37.826Z,3.60
2019-04-04T22:41:08.007Z,0.60
2019-04-04T22:43:38.349Z,3.00
2019-04-04T22:46:08.865Z,3.40
2019-04-04T22:48:39.701Z,1.00
2019-04-04T22:51:10.755Z,3.40
2019-04-04T22:53:41.684Z,3.00
2019-04-04T22:56:11.796Z,2.20
2019-04-04T22:58:42.038Z,3.00
2019-04-04T23:01:12.653Z,1.00
2019-04-04T23:03:43.371Z,1.00
2019-04-04T23:06:14.028Z,1.00
2019-04-04T23:08:44.178Z,1.80
2019-04-04T23:11:14.768Z,3.00
2019-04-04T23:13:45.019Z,3.40
2019-04-04T23:16:15.516Z,1.00
2019-04-04T23:18:46.260Z,1.00
2019-04-04T23:21:16.523Z,1.40
2019-04-04T23:23:47.408Z,1.80
2019-04-04T23:26:17.953Z,2.20
2019-04-04T23:28:48.368Z,1.80
2019-04-04T23:31:18.829Z,2.20
2019-04-04T23:33:49.132Z,0.00
2019-04-04T23:36:19.341Z,1.00
2019-04-04T23:38:49.593Z,3.00
2019-04-04T23:41:19.817Z,2.60
2019-04-04T23:43:50.010Z,1.00
2019-04-04T23:46:20.234Z,1.00
2019-04-04T23:48:50.589Z,1.50
2019-04-04T23:51:20.691Z,1.00
2019-04-04T23:53:53.674Z,0.00
2019-04-04T23:56:23.897Z,2.00
2019-04-04T23:58:54.520Z,1.40
